Terminal Aerodrome Forecast
Issued by NWS Wilmington, OH

Home | Current Version | Previous Version | Text Only | Print | Product List | Glossary On
Versions: 1 2 3 4 5 6 7 8 9 10 11 12 13 14 15 16 17 18 19
000
FTUS41 KILN 060800 AAA
TAFCMH
TAF AMD
KCMH 060825Z 0608/0706 VRB03KT P6SM SCT250
      TEMPO 0609/0612 3SM BR
     FM061700 25006KT P6SM SCT070
     FM070000 VRB03KT P6SM SKC=

USA.gov is the U.S. government's official web portal to all federal, state and local government web resources and services.